sensor_id;sensor_type;location;lat;lon;timestamp;P1;durP1;ratioP1;P2;durP2;ratioP2
13439;SDS011;6792;57.698;11.946;2023-07-16T00:00:08;7.03;;;3.60;;
13439;SDS011;6792;57.698;11.946;2023-07-16T00:02:39;7.17;;;3.72;;
13439;SDS011;6792;57.698;11.946;2023-07-16T00:05:09;5.90;;;3.30;;
13439;SDS011;6792;57.698;11.946;2023-07-16T00:07:38;5.22;;;3.87;;
13439;SDS011;6792;57.698;11.946;2023-07-16T00:10:08;6.55;;;3.70;;
13439;SDS011;6792;57.698;11.946;2023-07-16T00:12:38;6.72;;;3.42;;
13439;SDS011;6792;57.698;11.946;2023-07-16T00:15:11;6.78;;;3.58;;
13439;SDS011;6792;57.698;11.946;2023-07-16T00:17:41;6.12;;;3.72;;
13439;SDS011;6792;57.698;11.946;2023-07-16T00:20:11;6.65;;;4.03;;
13439;SDS011;6792;57.698;11.946;2023-07-16T00:22:41;9.18;;;4.35;;
13439;SDS011;6792;57.698;11.946;2023-07-16T00:25:10;7.90;;;3.35;;
13439;SDS011;6792;57.698;11.946;2023-07-16T00:27:39;10.10;;;3.83;;
13439;SDS011;6792;57.698;11.946;2023-07-16T00:30:10;7.70;;;3.85;;
13439;SDS011;6792;57.698;11.946;2023-07-16T00:32:39;9.03;;;3.70;;
13439;SDS011;6792;57.698;11.946;2023-07-16T00:35:09;8.85;;;3.70;;
13439;SDS011;6792;57.698;11.946;2023-07-16T00:37:38;10.28;;;3.92;;
13439;SDS011;6792;57.698;11.946;2023-07-16T00:40:09;6.90;;;3.80;;
13439;SDS011;6792;57.698;11.946;2023-07-16T00:42:40;8.53;;;3.70;;
13439;SDS011;6792;57.698;11.946;2023-07-16T00:45:12;9.15;;;4.35;;
13439;SDS011;6792;57.698;11.946;2023-07-16T00:47:44;13.28;;;4.62;;
13439;SDS011;6792;57.698;11.946;2023-07-16T00:50:13;11.50;;;4.55;;
13439;SDS011;6792;57.698;11.946;2023-07-16T00:52:42;14.30;;;4.33;;
13439;SDS011;6792;57.698;11.946;2023-07-16T00:55:12;15.03;;;4.80;;
13439;SDS011;6792;57.698;11.946;2023-07-16T00:57:42;15.38;;;5.37;;
13439;SDS011;6792;57.698;11.946;2023-07-16T01:00:13;14.50;;;5.00;;
13439;SDS011;6792;57.698;11.946;2023-07-16T01:02:43;14.70;;;4.15;;
13439;SDS011;6792;57.698;11.946;2023-07-16T01:05:12;12.68;;;3.80;;
13439;SDS011;6792;57.698;11.946;2023-07-16T01:07:42;11.75;;;4.45;;
13439;SDS011;6792;57.698;11.946;2023-07-16T01:10:13;10.40;;;4.10;;
13439;SDS011;6792;57.698;11.946;2023-07-16T01:12:43;12.37;;;4.72;;
13439;SDS011;6792;57.698;11.946;2023-07-16T01:15:14;8.95;;;4.22;;
13439;SDS011;6792;57.698;11.946;2023-07-16T01:17:43;11.22;;;3.87;;
13439;SDS011;6792;57.698;11.946;2023-07-16T01:20:13;12.35;;;4.15;;
13439;SDS011;6792;57.698;11.946;2023-07-16T01:22:52;9.58;;;3.72;;
13439;SDS011;6792;57.698;11.946;2023-07-16T01:25:37;12.00;;;5.30;;
13439;SDS011;6792;57.698;11.946;2023-07-16T01:28:22;10.08;;;5.17;;
13439;SDS011;6792;57.698;11.946;2023-07-16T01:30:58;9.03;;;4.67;;
13439;SDS011;6792;57.698;11.946;2023-07-16T01:33:28;13.38;;;5.17;;
13439;SDS011;6792;57.698;11.946;2023-07-16T01:35:58;7.00;;;4.17;;
13439;SDS011;6792;57.698;11.946;2023-07-16T01:38:28;8.93;;;3.33;;
13439;SDS011;6792;57.698;11.946;2023-07-16T01:40:58;16.20;;;3.95;;
13439;SDS011;6792;57.698;11.946;2023-07-16T01:43:27;7.75;;;4.47;;
13439;SDS011;6792;57.698;11.946;2023-07-16T01:45:56;7.12;;;3.52;;
13439;SDS011;6792;57.698;11.946;2023-07-16T01:48:29;9.70;;;3.87;;
13439;SDS011;6792;57.698;11.946;2023-07-16T01:50:59;7.03;;;3.50;;
13439;SDS011;6792;57.698;11.946;2023-07-16T01:53:29;10.63;;;4.20;;
13439;SDS011;6792;57.698;11.946;2023-07-16T01:56:01;10.15;;;3.85;;
13439;SDS011;6792;57.698;11.946;2023-07-16T01:58:30;10.53;;;4.28;;
13439;SDS011;6792;57.698;11.946;2023-07-16T02:01:00;8.13;;;4.58;;
13439;SDS011;6792;57.698;11.946;2023-07-16T02:03:29;16.93;;;5.00;;
13439;SDS011;6792;57.698;11.946;2023-07-16T02:05:58;11.97;;;5.17;;
13439;SDS011;6792;57.698;11.946;2023-07-16T02:08:27;11.15;;;4.85;;
13439;SDS011;6792;57.698;11.946;2023-07-16T02:10:57;13.40;;;5.90;;
13439;SDS011;6792;57.698;11.946;2023-07-16T02:13:26;12.50;;;5.95;;
13439;SDS011;6792;57.698;11.946;2023-07-16T02:15:55;10.45;;;6.30;;
13439;SDS011;6792;57.698;11.946;2023-07-16T02:18:25;14.45;;;5.90;;
13439;SDS011;6792;57.698;11.946;2023-07-16T02:20:54;13.90;;;5.55;;
13439;SDS011;6792;57.698;11.946;2023-07-16T02:23:23;12.00;;;5.20;;
13439;SDS011;6792;57.698;11.946;2023-07-16T02:25:53;12.68;;;5.62;;
13439;SDS011;6792;57.698;11.946;2023-07-16T02:28:22;15.50;;;4.92;;
13439;SDS011;6792;57.698;11.946;2023-07-16T02:30:51;12.07;;;5.10;;
13439;SDS011;6792;57.698;11.946;2023-07-16T02:33:20;13.45;;;5.45;;
13439;SDS011;6792;57.698;11.946;2023-07-16T02:35:50;16.52;;;6.10;;
13439;SDS011;6792;57.698;11.946;2023-07-16T02:38:19;11.48;;;5.78;;
13439;SDS011;6792;57.698;11.946;2023-07-16T02:40:49;17.95;;;7.10;;
13439;SDS011;6792;57.698;11.946;2023-07-16T02:43:18;13.35;;;6.90;;
13439;SDS011;6792;57.698;11.946;2023-07-16T02:45:47;15.23;;;7.50;;
13439;SDS011;6792;57.698;11.946;2023-07-16T02:48:17;10.10;;;7.20;;
13439;SDS011;6792;57.698;11.946;2023-07-16T02:50:46;15.85;;;7.30;;
13439;SDS011;6792;57.698;11.946;2023-07-16T02:53:15;13.38;;;7.03;;
13439;SDS011;6792;57.698;11.946;2023-07-16T02:55:45;16.62;;;8.00;;
13439;SDS011;6792;57.698;11.946;2023-07-16T02:58:14;14.25;;;8.78;;
13439;SDS011;6792;57.698;11.946;2023-07-16T03:00:43;17.00;;;7.55;;
13439;SDS011;6792;57.698;11.946;2023-07-16T03:03:13;12.43;;;7.72;;
13439;SDS011;6792;57.698;11.946;2023-07-16T03:05:42;13.65;;;7.00;;
13439;SDS011;6792;57.698;11.946;2023-07-16T03:08:11;13.00;;;6.45;;
13439;SDS011;6792;57.698;11.946;2023-07-16T03:10:40;9.78;;;6.42;;
13439;SDS011;6792;57.698;11.946;2023-07-16T03:13:09;10.15;;;5.78;;
13439;SDS011;6792;57.698;11.946;2023-07-16T03:15:39;13.50;;;5.75;;
13439;SDS011;6792;57.698;11.946;2023-07-16T03:18:08;11.22;;;5.12;;
13439;SDS011;6792;57.698;11.946;2023-07-16T03:20:37;10.08;;;5.50;;
13439;SDS011;6792;57.698;11.946;2023-07-16T03:23:06;8.95;;;4.78;;
13439;SDS011;6792;57.698;11.946;2023-07-16T03:25:36;10.60;;;5.05;;
13439;SDS011;6792;57.698;11.946;2023-07-16T03:28:05;6.28;;;5.08;;
13439;SDS011;6792;57.698;11.946;2023-07-16T03:30:34;4.90;;;4.33;;
13439;SDS011;6792;57.698;11.946;2023-07-16T03:33:04;8.95;;;4.90;;
13439;SDS011;6792;57.698;11.946;2023-07-16T03:35:33;10.88;;;4.72;;
13439;SDS011;6792;57.698;11.946;2023-07-16T03:38:02;8.08;;;4.72;;
13439;SDS011;6792;57.698;11.946;2023-07-16T03:40:31;9.43;;;5.20;;
13439;SDS011;6792;57.698;11.946;2023-07-16T03:43:01;9.05;;;4.58;;
13439;SDS011;6792;57.698;11.946;2023-07-16T03:45:30;5.80;;;4.33;;
13439;SDS011;6792;57.698;11.946;2023-07-16T03:48:00;8.13;;;4.42;;
13439;SDS011;6792;57.698;11.946;2023-07-16T03:50:29;7.10;;;4.17;;
13439;SDS011;6792;57.698;11.946;2023-07-16T03:52:58;6.05;;;4.00;;
13439;SDS011;6792;57.698;11.946;2023-07-16T03:55:27;4.70;;;3.90;;
13439;SDS011;6792;57.698;11.946;2023-07-16T03:57:57;5.70;;;3.58;;
13439;SDS011;6792;57.698;11.946;2023-07-16T04:00:26;6.28;;;4.10;;
13439;SDS011;6792;57.698;11.946;2023-07-16T04:02:55;5.87;;;4.10;;
13439;SDS011;6792;57.698;11.946;2023-07-16T04:05:24;5.80;;;3.85;;
13439;SDS011;6792;57.698;11.946;2023-07-16T04:07:54;4.67;;;3.87;;
13439;SDS011;6792;57.698;11.946;2023-07-16T04:10:23;5.87;;;3.67;;
13439;SDS011;6792;57.698;11.946;2023-07-16T04:12:52;5.87;;;3.30;;
13439;SDS011;6792;57.698;11.946;2023-07-16T04:15:22;4.85;;;3.30;;
13439;SDS011;6792;57.698;11.946;2023-07-16T04:17:51;5.72;;;3.20;;
13439;SDS011;6792;57.698;11.946;2023-07-16T04:20:20;3.87;;;3.00;;
13439;SDS011;6792;57.698;11.946;2023-07-16T04:22:50;4.30;;;2.98;;
13439;SDS011;6792;57.698;11.946;2023-07-16T04:25:20;4.47;;;2.87;;
13439;SDS011;6792;57.698;11.946;2023-07-16T04:27:51;4.17;;;2.60;;
13439;SDS011;6792;57.698;11.946;2023-07-16T04:30:21;5.12;;;2.85;;
13439;SDS011;6792;57.698;11.946;2023-07-16T04:32:50;2.90;;;2.40;;
13439;SDS011;6792;57.698;11.946;2023-07-16T04:35:20;1.98;;;1.70;;
13439;SDS011;6792;57.698;11.946;2023-07-16T04:37:49;4.87;;;1.98;;
13439;SDS011;6792;57.698;11.946;2023-07-16T04:40:18;3.27;;;2.27;;
13439;SDS011;6792;57.698;11.946;2023-07-16T04:42:47;5.62;;;2.30;;
13439;SDS011;6792;57.698;11.946;2023-07-16T04:45:17;2.58;;;2.02;;
13439;SDS011;6792;57.698;11.946;2023-07-16T04:47:46;5.97;;;2.50;;
13439;SDS011;6792;57.698;11.946;2023-07-16T04:50:16;3.50;;;1.80;;
13439;SDS011;6792;57.698;11.946;2023-07-16T04:52:45;3.42;;;1.85;;
13439;SDS011;6792;57.698;11.946;2023-07-16T04:55:14;5.00;;;2.60;;
13439;SDS011;6792;57.698;11.946;2023-07-16T04:57:44;8.10;;;2.50;;
13439;SDS011;6792;57.698;11.946;2023-07-16T05:00:14;5.15;;;2.08;;
13439;SDS011;6792;57.698;11.946;2023-07-16T05:02:43;2.58;;;2.12;;
13439;SDS011;6792;57.698;11.946;2023-07-16T05:05:14;5.17;;;2.05;;
13439;SDS011;6792;57.698;11.946;2023-07-16T05:07:43;4.00;;;1.90;;
13439;SDS011;6792;57.698;11.946;2023-07-16T05:10:13;2.52;;;1.60;;
13439;SDS011;6792;57.698;11.946;2023-07-16T05:12:42;2.25;;;1.70;;
13439;SDS011;6792;57.698;11.946;2023-07-16T05:15:11;5.58;;;1.55;;
13439;SDS011;6792;57.698;11.946;2023-07-16T05:17:41;2.62;;;1.72;;
13439;SDS011;6792;57.698;11.946;2023-07-16T05:20:11;2.22;;;1.70;;
13439;SDS011;6792;57.698;11.946;2023-07-16T05:22:40;3.85;;;1.75;;
13439;SDS011;6792;57.698;11.946;2023-07-16T05:25:09;3.02;;;1.72;;
13439;SDS011;6792;57.698;11.946;2023-07-16T05:27:39;2.25;;;1.40;;
13439;SDS011;6792;57.698;11.946;2023-07-16T05:30:09;4.60;;;1.80;;
13439;SDS011;6792;57.698;11.946;2023-07-16T05:32:39;5.12;;;1.50;;
13439;SDS011;6792;57.698;11.946;2023-07-16T05:35:13;7.40;;;1.62;;
13439;SDS011;6792;57.698;11.946;2023-07-16T05:37:42;2.87;;;1.60;;
13439;SDS011;6792;57.698;11.946;2023-07-16T05:40:12;1.47;;;1.17;;
13439;SDS011;6792;57.698;11.946;2023-07-16T05:42:41;2.42;;;1.30;;
13439;SDS011;6792;57.698;11.946;2023-07-16T05:45:11;2.92;;;1.67;;
13439;SDS011;6792;57.698;11.946;2023-07-16T05:47:40;3.40;;;1.32;;
13439;SDS011;6792;57.698;11.946;2023-07-16T05:50:10;5.15;;;1.50;;
13439;SDS011;6792;57.698;11.946;2023-07-16T05:53:06;2.22;;;1.12;;
13439;SDS011;6792;57.698;11.946;2023-07-16T05:55:37;2.30;;;1.30;;
13439;SDS011;6792;57.698;11.946;2023-07-16T05:58:07;1.72;;;1.42;;
13439;SDS011;6792;57.698;11.946;2023-07-16T06:00:37;6.87;;;1.37;;
13439;SDS011;6792;57.698;11.946;2023-07-16T06:03:08;2.42;;;1.20;;
13439;SDS011;6792;57.698;11.946;2023-07-16T06:05:43;1.20;;;1.05;;
13439;SDS011;6792;57.698;11.946;2023-07-16T06:08:13;2.80;;;1.47;;
13439;SDS011;6792;57.698;11.946;2023-07-16T06:10:43;4.45;;;1.45;;
13439;SDS011;6792;57.698;11.946;2023-07-16T06:13:13;4.17;;;1.40;;
13439;SDS011;6792;57.698;11.946;2023-07-16T06:15:43;2.50;;;1.27;;
13439;SDS011;6792;57.698;11.946;2023-07-16T06:18:13;2.42;;;1.25;;
13439;SDS011;6792;57.698;11.946;2023-07-16T06:20:44;4.35;;;1.50;;
13439;SDS011;6792;57.698;11.946;2023-07-16T06:23:13;5.50;;;1.60;;
13439;SDS011;6792;57.698;11.946;2023-07-16T06:25:43;4.22;;;1.60;;
13439;SDS011;6792;57.698;11.946;2023-07-16T06:28:14;4.15;;;1.57;;
13439;SDS011;6792;57.698;11.946;2023-07-16T06:30:44;2.17;;;1.60;;
13439;SDS011;6792;57.698;11.946;2023-07-16T06:33:13;2.52;;;1.82;;
13439;SDS011;6792;57.698;11.946;2023-07-16T06:35:44;3.45;;;1.47;;
13439;SDS011;6792;57.698;11.946;2023-07-16T06:38:14;7.22;;;1.82;;
13439;SDS011;6792;57.698;11.946;2023-07-16T06:40:47;6.25;;;1.65;;
13439;SDS011;6792;57.698;11.946;2023-07-16T06:43:16;3.98;;;1.50;;
13439;SDS011;6792;57.698;11.946;2023-07-16T06:45:46;2.17;;;1.30;;
13439;SDS011;6792;57.698;11.946;2023-07-16T06:48:17;4.00;;;1.62;;
13439;SDS011;6792;57.698;11.946;2023-07-16T06:50:47;5.72;;;1.60;;
13439;SDS011;6792;57.698;11.946;2023-07-16T06:53:17;4.87;;;1.70;;
13439;SDS011;6792;57.698;11.946;2023-07-16T06:55:47;6.00;;;1.65;;
13439;SDS011;6792;57.698;11.946;2023-07-16T06:58:17;3.15;;;1.65;;
13439;SDS011;6792;57.698;11.946;2023-07-16T07:00:47;5.37;;;1.60;;
13439;SDS011;6792;57.698;11.946;2023-07-16T07:03:17;4.42;;;1.70;;
13439;SDS011;6792;57.698;11.946;2023-07-16T07:05:47;5.15;;;1.70;;
13439;SDS011;6792;57.698;11.946;2023-07-16T07:08:16;5.12;;;1.37;;
13439;SDS011;6792;57.698;11.946;2023-07-16T07:10:48;6.78;;;1.90;;
13439;SDS011;6792;57.698;11.946;2023-07-16T07:13:18;4.58;;;2.22;;
13439;SDS011;6792;57.698;11.946;2023-07-16T07:15:47;5.08;;;1.57;;
13439;SDS011;6792;57.698;11.946;2023-07-16T07:18:16;7.80;;;1.77;;
13439;SDS011;6792;57.698;11.946;2023-07-16T07:20:46;5.87;;;1.82;;
13439;SDS011;6792;57.698;11.946;2023-07-16T07:23:15;4.92;;;1.60;;
13439;SDS011;6792;57.698;11.946;2023-07-16T07:25:48;4.58;;;1.40;;
13439;SDS011;6792;57.698;11.946;2023-07-16T07:28:19;6.08;;;1.87;;
13439;SDS011;6792;57.698;11.946;2023-07-16T07:30:48;6.22;;;1.77;;
13439;SDS011;6792;57.698;11.946;2023-07-16T07:33:18;4.67;;;1.50;;
13439;SDS011;6792;57.698;11.946;2023-07-16T07:35:47;9.08;;;2.20;;
13439;SDS011;6792;57.698;11.946;2023-07-16T07:38:19;7.05;;;1.70;;
13439;SDS011;6792;57.698;11.946;2023-07-16T07:40:50;8.33;;;2.15;;
13439;SDS011;6792;57.698;11.946;2023-07-16T07:43:19;8.60;;;2.00;;
13439;SDS011;6792;57.698;11.946;2023-07-16T07:45:49;6.75;;;1.72;;
13439;SDS011;6792;57.698;11.946;2023-07-16T07:48:18;7.78;;;2.17;;
13439;SDS011;6792;57.698;11.946;2023-07-16T07:50:48;11.73;;;2.30;;
13439;SDS011;6792;57.698;11.946;2023-07-16T07:53:17;10.43;;;2.40;;
13439;SDS011;6792;57.698;11.946;2023-07-16T07:55:46;8.28;;;2.22;;
13439;SDS011;6792;57.698;11.946;2023-07-16T07:58:16;6.12;;;2.58;;
13439;SDS011;6792;57.698;11.946;2023-07-16T08:00:45;13.60;;;2.52;;
13439;SDS011;6792;57.698;11.946;2023-07-16T08:03:15;6.80;;;2.12;;
13439;SDS011;6792;57.698;11.946;2023-07-16T08:05:45;10.70;;;2.27;;
13439;SDS011;6792;57.698;11.946;2023-07-16T08:08:16;5.78;;;2.08;;
13439;SDS011;6792;57.698;11.946;2023-07-16T08:10:46;9.75;;;2.30;;
13439;SDS011;6792;57.698;11.946;2023-07-16T08:13:15;8.45;;;2.27;;
13439;SDS011;6792;57.698;11.946;2023-07-16T08:15:44;10.38;;;2.42;;
13439;SDS011;6792;57.698;11.946;2023-07-16T08:18:15;7.10;;;2.00;;
13439;SDS011;6792;57.698;11.946;2023-07-16T08:20:44;8.15;;;2.10;;
13439;SDS011;6792;57.698;11.946;2023-07-16T08:23:15;7.15;;;2.10;;
13439;SDS011;6792;57.698;11.946;2023-07-16T08:25:44;7.78;;;2.37;;
13439;SDS011;6792;57.698;11.946;2023-07-16T08:28:13;10.05;;;2.22;;
13439;SDS011;6792;57.698;11.946;2023-07-16T08:30:42;7.03;;;2.47;;
13439;SDS011;6792;57.698;11.946;2023-07-16T08:33:15;10.75;;;2.75;;
13439;SDS011;6792;57.698;11.946;2023-07-16T08:35:44;7.15;;;2.40;;
13439;SDS011;6792;57.698;11.946;2023-07-16T08:38:14;14.35;;;2.80;;
13439;SDS011;6792;57.698;11.946;2023-07-16T08:40:43;10.05;;;2.83;;
13439;SDS011;6792;57.698;11.946;2023-07-16T08:43:16;11.57;;;3.20;;
13439;SDS011;6792;57.698;11.946;2023-07-16T08:45:46;9.50;;;3.17;;
13439;SDS011;6792;57.698;11.946;2023-07-16T08:48:17;8.48;;;2.75;;
13439;SDS011;6792;57.698;11.946;2023-07-16T08:50:47;9.35;;;3.17;;
13439;SDS011;6792;57.698;11.946;2023-07-16T08:53:17;11.03;;;2.90;;
13439;SDS011;6792;57.698;11.946;2023-07-16T08:55:47;11.55;;;3.00;;
13439;SDS011;6792;57.698;11.946;2023-07-16T08:58:17;10.28;;;2.80;;
13439;SDS011;6792;57.698;11.946;2023-07-16T09:00:47;11.88;;;2.72;;
13439;SDS011;6792;57.698;11.946;2023-07-16T09:03:17;12.43;;;3.22;;
13439;SDS011;6792;57.698;11.946;2023-07-16T09:05:47;16.57;;;3.12;;
13439;SDS011;6792;57.698;11.946;2023-07-16T09:08:16;8.40;;;2.98;;
13439;SDS011;6792;57.698;11.946;2023-07-16T09:10:52;9.65;;;3.15;;
13439;SDS011;6792;57.698;11.946;2023-07-16T09:13:21;6.35;;;3.05;;
13439;SDS011;6792;57.698;11.946;2023-07-16T09:15:54;9.50;;;3.17;;
13439;SDS011;6792;57.698;11.946;2023-07-16T09:18:24;13.65;;;3.50;;
13439;SDS011;6792;57.698;11.946;2023-07-16T09:20:55;11.18;;;3.45;;
13439;SDS011;6792;57.698;11.946;2023-07-16T09:23:25;12.07;;;3.00;;
13439;SDS011;6792;57.698;11.946;2023-07-16T09:25:55;11.05;;;3.85;;
13439;SDS011;6792;57.698;11.946;2023-07-16T09:28:24;14.07;;;3.85;;
13439;SDS011;6792;57.698;11.946;2023-07-16T09:30:54;8.03;;;3.22;;
13439;SDS011;6792;57.698;11.946;2023-07-16T09:33:26;14.63;;;3.80;;
13439;SDS011;6792;57.698;11.946;2023-07-16T09:35:56;10.53;;;3.52;;
13439;SDS011;6792;57.698;11.946;2023-07-16T09:38:25;13.35;;;3.65;;
13439;SDS011;6792;57.698;11.946;2023-07-16T09:40:56;11.73;;;3.85;;
13439;SDS011;6792;57.698;11.946;2023-07-16T09:43:26;12.53;;;3.67;;
13439;SDS011;6792;57.698;11.946;2023-07-16T09:45:55;15.15;;;4.67;;
13439;SDS011;6792;57.698;11.946;2023-07-16T09:48:24;14.33;;;4.25;;
13439;SDS011;6792;57.698;11.946;2023-07-16T09:50:54;9.28;;;3.87;;
13439;SDS011;6792;57.698;11.946;2023-07-16T09:53:24;10.38;;;4.00;;
13439;SDS011;6792;57.698;11.946;2023-07-16T09:55:54;16.85;;;3.75;;
13439;SDS011;6792;57.698;11.946;2023-07-16T09:58:26;10.03;;;3.67;;
13439;SDS011;6792;57.698;11.946;2023-07-16T10:00:57;13.43;;;3.58;;
13439;SDS011;6792;57.698;11.946;2023-07-16T10:03:27;15.08;;;3.83;;
13439;SDS011;6792;57.698;11.946;2023-07-16T10:06:05;9.00;;;3.33;;
13439;SDS011;6792;57.698;11.946;2023-07-16T10:08:35;13.95;;;4.12;;
13439;SDS011;6792;57.698;11.946;2023-07-16T10:11:14;14.63;;;4.00;;
13439;SDS011;6792;57.698;11.946;2023-07-16T10:13:49;10.48;;;3.15;;
13439;SDS011;6792;57.698;11.946;2023-07-16T10:16:21;11.57;;;3.98;;
13439;SDS011;6792;57.698;11.946;2023-07-16T10:18:52;11.97;;;3.27;;
13439;SDS011;6792;57.698;11.946;2023-07-16T10:21:25;10.43;;;3.35;;
13439;SDS011;6792;57.698;11.946;2023-07-16T10:23:57;11.60;;;3.67;;
13439;SDS011;6792;57.698;11.946;2023-07-16T10:26:27;11.00;;;3.35;;
13439;SDS011;6792;57.698;11.946;2023-07-16T10:28:57;11.70;;;3.58;;
13439;SDS011;6792;57.698;11.946;2023-07-16T10:31:26;8.43;;;3.35;;
13439;SDS011;6792;57.698;11.946;2023-07-16T10:33:59;12.28;;;3.45;;
13439;SDS011;6792;57.698;11.946;2023-07-16T10:36:36;12.33;;;3.37;;
13439;SDS011;6792;57.698;11.946;2023-07-16T10:39:05;9.73;;;2.92;;
13439;SDS011;6792;57.698;11.946;2023-07-16T10:41:34;10.35;;;3.33;;
13439;SDS011;6792;57.698;11.946;2023-07-16T10:44:05;8.53;;;3.58;;
13439;SDS011;6792;57.698;11.946;2023-07-16T10:46:46;11.40;;;3.52;;
13439;SDS011;6792;57.698;11.946;2023-07-16T10:49:26;5.70;;;2.90;;
13439;SDS011;6792;57.698;11.946;2023-07-16T10:51:57;8.80;;;3.20;;
13439;SDS011;6792;57.698;11.946;2023-07-16T10:54:27;7.72;;;3.35;;
13439;SDS011;6792;57.698;11.946;2023-07-16T10:56:57;8.40;;;2.80;;
13439;SDS011;6792;57.698;11.946;2023-07-16T10:59:26;11.30;;;3.72;;
13439;SDS011;6792;57.698;11.946;2023-07-16T11:01:55;9.03;;;3.15;;
13439;SDS011;6792;57.698;11.946;2023-07-16T11:04:25;9.88;;;3.55;;
13439;SDS011;6792;57.698;11.946;2023-07-16T11:06:56;8.30;;;3.08;;
13439;SDS011;6792;57.698;11.946;2023-07-16T11:09:25;8.85;;;3.17;;
13439;SDS011;6792;57.698;11.946;2023-07-16T11:11:54;10.88;;;3.42;;
13439;SDS011;6792;57.698;11.946;2023-07-16T11:14:25;10.85;;;3.47;;
13439;SDS011;6792;57.698;11.946;2023-07-16T11:16:55;12.23;;;3.40;;
13439;SDS011;6792;57.698;11.946;2023-07-16T11:19:34;13.25;;;3.58;;
13439;SDS011;6792;57.698;11.946;2023-07-16T11:22:05;9.43;;;3.62;;
13439;SDS011;6792;57.698;11.946;2023-07-16T11:24:41;15.00;;;3.30;;
13439;SDS011;6792;57.698;11.946;2023-07-16T11:27:13;12.78;;;3.33;;
13439;SDS011;6792;57.698;11.946;2023-07-16T11:29:47;10.10;;;3.42;;
13439;SDS011;6792;57.698;11.946;2023-07-16T11:32:26;9.73;;;2.92;;
13439;SDS011;6792;57.698;11.946;2023-07-16T11:34:57;10.00;;;3.12;;
13439;SDS011;6792;57.698;11.946;2023-07-16T11:37:27;7.05;;;3.00;;
13439;SDS011;6792;57.698;11.946;2023-07-16T11:39:58;9.48;;;3.20;;
13439;SDS011;6792;57.698;11.946;2023-07-16T11:42:30;13.25;;;3.42;;
13439;SDS011;6792;57.698;11.946;2023-07-16T11:45:00;10.40;;;3.37;;
13439;SDS011;6792;57.698;11.946;2023-07-16T11:47:31;11.93;;;3.72;;
13439;SDS011;6792;57.698;11.946;2023-07-16T11:50:00;11.45;;;3.33;;
13439;SDS011;6792;57.698;11.946;2023-07-16T11:52:30;7.40;;;3.27;;
13439;SDS011;6792;57.698;11.946;2023-07-16T11:54:59;14.25;;;3.20;;
13439;SDS011;6792;57.698;11.946;2023-07-16T11:57:30;8.88;;;2.90;;
13439;SDS011;6792;57.698;11.946;2023-07-16T11:59:59;11.12;;;3.80;;
13439;SDS011;6792;57.698;11.946;2023-07-16T12:02:30;9.08;;;3.00;;
13439;SDS011;6792;57.698;11.946;2023-07-16T12:04:59;11.97;;;3.70;;
13439;SDS011;6792;57.698;11.946;2023-07-16T12:07:32;12.98;;;3.58;;
13439;SDS011;6792;57.698;11.946;2023-07-16T12:10:04;10.93;;;3.58;;
13439;SDS011;6792;57.698;11.946;2023-07-16T12:12:35;14.05;;;3.67;;
13439;SDS011;6792;57.698;11.946;2023-07-16T12:15:05;8.33;;;2.50;;
13439;SDS011;6792;57.698;11.946;2023-07-16T12:17:36;11.63;;;2.95;;
13439;SDS011;6792;57.698;11.946;2023-07-16T12:20:07;18.40;;;3.20;;
13439;SDS011;6792;57.698;11.946;2023-07-16T12:23:11;8.05;;;3.52;;
13439;SDS011;6792;57.698;11.946;2023-07-16T12:25:40;15.00;;;3.75;;
13439;SDS011;6792;57.698;11.946;2023-07-16T12:28:10;11.57;;;3.37;;
13439;SDS011;6792;57.698;11.946;2023-07-16T12:30:39;11.38;;;4.30;;
13439;SDS011;6792;57.698;11.946;2023-07-16T12:33:08;16.80;;;4.37;;
13439;SDS011;6792;57.698;11.946;2023-07-16T12:35:38;17.00;;;3.58;;
13439;SDS011;6792;57.698;11.946;2023-07-16T12:38:10;9.85;;;3.72;;
13439;SDS011;6792;57.698;11.946;2023-07-16T12:40:39;11.78;;;2.98;;
13439;SDS011;6792;57.698;11.946;2023-07-16T12:43:08;11.20;;;2.92;;
13439;SDS011;6792;57.698;11.946;2023-07-16T12:45:38;4.22;;;2.67;;
13439;SDS011;6792;57.698;11.946;2023-07-16T12:48:07;10.82;;;2.87;;
13439;SDS011;6792;57.698;11.946;2023-07-16T12:50:36;8.98;;;2.75;;
13439;SDS011;6792;57.698;11.946;2023-07-16T12:53:05;10.70;;;2.85;;
13439;SDS011;6792;57.698;11.946;2023-07-16T12:55:34;8.63;;;2.90;;
13439;SDS011;6792;57.698;11.946;2023-07-16T12:58:04;9.70;;;3.22;;
13439;SDS011;6792;57.698;11.946;2023-07-16T13:00:33;8.28;;;2.98;;
13439;SDS011;6792;57.698;11.946;2023-07-16T13:03:02;7.75;;;2.98;;
13439;SDS011;6792;57.698;11.946;2023-07-16T13:05:31;12.13;;;3.60;;
13439;SDS011;6792;57.698;11.946;2023-07-16T13:08:00;9.65;;;3.02;;
13439;SDS011;6792;57.698;11.946;2023-07-16T13:10:30;12.28;;;3.40;;
13439;SDS011;6792;57.698;11.946;2023-07-16T13:12:59;7.58;;;2.65;;
13439;SDS011;6792;57.698;11.946;2023-07-16T13:15:29;12.82;;;4.22;;
13439;SDS011;6792;57.698;11.946;2023-07-16T13:17:59;10.13;;;3.15;;
13439;SDS011;6792;57.698;11.946;2023-07-16T13:20:28;10.05;;;2.90;;
13439;SDS011;6792;57.698;11.946;2023-07-16T13:22:59;13.72;;;3.58;;
13439;SDS011;6792;57.698;11.946;2023-07-16T13:25:29;8.23;;;3.25;;
13439;SDS011;6792;57.698;11.946;2023-07-16T13:27:58;8.28;;;3.00;;
13439;SDS011;6792;57.698;11.946;2023-07-16T13:30:27;9.80;;;3.20;;
13439;SDS011;6792;57.698;11.946;2023-07-16T13:32:56;14.98;;;3.33;;
13439;SDS011;6792;57.698;11.946;2023-07-16T13:35:25;8.43;;;3.00;;
13439;SDS011;6792;57.698;11.946;2023-07-16T13:37:55;7.80;;;2.92;;
13439;SDS011;6792;57.698;11.946;2023-07-16T13:40:24;10.60;;;2.72;;
13439;SDS011;6792;57.698;11.946;2023-07-16T13:42:53;7.47;;;2.87;;
13439;SDS011;6792;57.698;11.946;2023-07-16T13:45:22;9.73;;;3.27;;
13439;SDS011;6792;57.698;11.946;2023-07-16T13:47:53;10.75;;;3.15;;
13439;SDS011;6792;57.698;11.946;2023-07-16T13:50:22;14.30;;;3.37;;
13439;SDS011;6792;57.698;11.946;2023-07-16T13:52:51;8.48;;;2.92;;
13439;SDS011;6792;57.698;11.946;2023-07-16T13:55:21;9.50;;;2.65;;
13439;SDS011;6792;57.698;11.946;2023-07-16T13:57:50;11.20;;;3.72;;
13439;SDS011;6792;57.698;11.946;2023-07-16T14:00:22;14.30;;;3.05;;
13439;SDS011;6792;57.698;11.946;2023-07-16T14:02:51;9.23;;;2.72;;
13439;SDS011;6792;57.698;11.946;2023-07-16T14:05:20;9.25;;;3.00;;
13439;SDS011;6792;57.698;11.946;2023-07-16T14:07:53;11.25;;;2.70;;
13439;SDS011;6792;57.698;11.946;2023-07-16T14:10:22;10.80;;;3.15;;
13439;SDS011;6792;57.698;11.946;2023-07-16T14:12:52;14.15;;;3.05;;
13439;SDS011;6792;57.698;11.946;2023-07-16T14:15:21;9.90;;;3.02;;
13439;SDS011;6792;57.698;11.946;2023-07-16T14:17:50;6.60;;;2.52;;
13439;SDS011;6792;57.698;11.946;2023-07-16T14:20:19;7.28;;;2.67;;
13439;SDS011;6792;57.698;11.946;2023-07-16T14:22:49;7.03;;;2.15;;
13439;SDS011;6792;57.698;11.946;2023-07-16T14:25:18;10.60;;;2.87;;
13439;SDS011;6792;57.698;11.946;2023-07-16T14:27:50;7.15;;;2.12;;
13439;SDS011;6792;57.698;11.946;2023-07-16T14:30:19;5.05;;;2.08;;
13439;SDS011;6792;57.698;11.946;2023-07-16T14:32:48;9.73;;;2.77;;
13439;SDS011;6792;57.698;11.946;2023-07-16T14:35:18;11.25;;;2.45;;
13439;SDS011;6792;57.698;11.946;2023-07-16T14:37:48;7.62;;;2.42;;
13439;SDS011;6792;57.698;11.946;2023-07-16T14:40:21;8.78;;;2.70;;
13439;SDS011;6792;57.698;11.946;2023-07-16T14:42:50;13.18;;;2.75;;
13439;SDS011;6792;57.698;11.946;2023-07-16T14:45:22;8.33;;;2.60;;
13439;SDS011;6792;57.698;11.946;2023-07-16T14:47:51;8.38;;;2.50;;
13439;SDS011;6792;57.698;11.946;2023-07-16T14:50:20;7.40;;;2.58;;
13439;SDS011;6792;57.698;11.946;2023-07-16T14:52:53;13.20;;;2.95;;
13439;SDS011;6792;57.698;11.946;2023-07-16T14:55:22;10.75;;;2.42;;
13439;SDS011;6792;57.698;11.946;2023-07-16T14:57:51;10.78;;;2.52;;
13439;SDS011;6792;57.698;11.946;2023-07-16T15:00:20;9.55;;;2.80;;